createdAt,value
2023-03-08T00:00:54.654Z,7.23
2023-03-08T00:03:22.113Z,7.26
2023-03-08T00:05:49.840Z,7.10
2023-03-08T00:08:24.202Z,6.97
2023-03-08T00:10:53.151Z,6.83
2023-03-08T00:13:21.888Z,6.74
2023-03-08T00:15:53.278Z,6.74
2023-03-08T00:18:21.865Z,6.73
2023-03-08T00:21:15.865Z,6.67
2023-03-08T00:23:47.017Z,6.54
2023-03-08T00:26:14.918Z,6.55
2023-03-08T00:28:47.825Z,6.51
2023-03-08T00:31:18.361Z,6.50
2023-03-08T00:33:46.104Z,6.49
2023-03-08T00:36:21.827Z,6.43
2023-03-08T00:38:51.750Z,6.44
2023-03-08T00:41:23.484Z,6.48
2023-03-08T00:43:56.395Z,6.31
2023-03-08T00:46:31.578Z,6.05
2023-03-08T00:49:08.249Z,5.88
2023-03-08T00:51:37.962Z,5.84
2023-03-08T00:54:05.992Z,5.77
2023-03-08T00:56:34.051Z,5.84
2023-03-08T00:59:04.337Z,5.83
2023-03-08T01:01:32.972Z,5.69
2023-03-08T01:04:05.293Z,5.59
2023-03-08T01:06:36.700Z,5.67
2023-03-08T01:09:10.509Z,5.70
2023-03-08T01:11:47.385Z,5.65
2023-03-08T01:14:18.214Z,5.66
2023-03-08T01:17:02.986Z,5.74
2023-03-08T01:19:40.360Z,5.72
2023-03-08T01:22:11.415Z,5.74
2023-03-08T01:24:51.060Z,5.63
2023-03-08T01:27:20.618Z,5.59
2023-03-08T01:29:59.048Z,5.61
2023-03-08T01:32:36.095Z,5.50
2023-03-08T01:35:10.381Z,5.45
2023-03-08T01:37:54.634Z,5.47
2023-03-08T01:40:28.437Z,5.46
2023-03-08T01:43:36.865Z,5.30
2023-03-08T01:46:37.475Z,5.26
2023-03-08T01:49:35.188Z,5.23
2023-03-08T01:52:51.755Z,5.18
2023-03-08T01:55:33.164Z,5.13
2023-03-08T01:58:10.012Z,4.99
2023-03-08T02:00:43.247Z,5.01
2023-03-08T02:03:14.761Z,5.03
2023-03-08T02:05:48.278Z,5.20
2023-03-08T02:08:49.320Z,5.43
2023-03-08T02:11:24.342Z,5.44
2023-03-08T02:14:04.770Z,5.23
2023-03-08T02:16:33.381Z,5.11
2023-03-08T02:19:08.549Z,5.03
2023-03-08T02:21:43.393Z,4.96
2023-03-08T02:24:24.796Z,4.94
2023-03-08T02:27:01.181Z,4.98
2023-03-08T02:29:31.346Z,4.85
2023-03-08T02:31:58.733Z,4.74
2023-03-08T02:34:25.942Z,4.84
2023-03-08T02:36:53.213Z,4.83
2023-03-08T02:39:20.352Z,4.82
2023-03-08T02:41:47.597Z,4.80
2023-03-08T02:44:14.903Z,4.71
2023-03-08T02:46:52.436Z,4.66
2023-03-08T02:49:19.821Z,4.60
2023-03-08T02:51:47.208Z,4.66
2023-03-08T02:54:16.922Z,4.62
2023-03-08T02:56:44.444Z,4.58
2023-03-08T02:59:13.744Z,4.49
2023-03-08T03:01:42.886Z,4.43
2023-03-08T03:04:12.869Z,4.37
2023-03-08T03:06:40.291Z,4.42
2023-03-08T03:09:10.267Z,4.35
2023-03-08T03:11:40.996Z,4.37
2023-03-08T03:14:08.545Z,4.37
2023-03-08T03:16:40.570Z,4.44
2023-03-08T03:19:09.907Z,4.46
2023-03-08T03:21:39.904Z,4.38
2023-03-08T03:24:08.037Z,4.36
2023-03-08T03:26:43.914Z,4.29
2023-03-08T03:29:11.392Z,4.19
2023-03-08T03:31:41.495Z,4.24
2023-03-08T03:34:14.183Z,4.21
2023-03-08T03:36:58.249Z,4.23
2023-03-08T03:39:26.552Z,4.16
2023-03-08T03:41:56.449Z,4.10
2023-03-08T03:44:24.781Z,4.11
2023-03-08T03:46:54.873Z,4.08
2023-03-08T03:49:29.634Z,4.04
2023-03-08T03:51:59.835Z,3.99
2023-03-08T03:54:45.444Z,3.99
2023-03-08T03:57:18.269Z,3.93
2023-03-08T03:59:46.345Z,3.95
2023-03-08T04:02:13.902Z,3.92
2023-03-08T04:04:52.362Z,3.91
2023-03-08T04:07:23.914Z,3.80
2023-03-08T04:10:08.015Z,3.84
2023-03-08T04:12:39.544Z,3.87
2023-03-08T04:15:08.465Z,3.80
2023-03-08T04:17:38.342Z,3.74
2023-03-08T04:20:08.687Z,3.71
2023-03-08T04:22:42.075Z,3.72
2023-03-08T04:25:18.977Z,3.73
2023-03-08T04:27:53.398Z,3.72
2023-03-08T04:30:24.072Z,3.68
2023-03-08T04:32:52.565Z,3.66
2023-03-08T04:35:26.549Z,3.71
2023-03-08T04:37:55.693Z,3.70
2023-03-08T04:40:30.073Z,3.66
2023-03-08T04:43:01.165Z,3.65
2023-03-08T04:45:36.156Z,3.62
2023-03-08T04:48:09.200Z,3.61
2023-03-08T04:50:36.666Z,3.63
2023-03-08T04:53:05.811Z,3.62
2023-03-08T04:55:33.258Z,3.74
2023-03-08T04:58:02.485Z,3.61
2023-03-08T05:00:32.335Z,3.49
2023-03-08T05:02:59.675Z,3.50
2023-03-08T05:05:27.301Z,3.53
2023-03-08T05:07:55.419Z,3.49
2023-03-08T05:10:22.703Z,3.54
2023-03-08T05:12:50.832Z,3.59
2023-03-08T05:15:18.174Z,3.56
2023-03-08T05:17:46.676Z,3.49
2023-03-08T05:20:14.320Z,3.52
2023-03-08T05:22:57.230Z,3.49
2023-03-08T05:25:31.405Z,3.39
2023-03-08T05:28:00.127Z,3.54
2023-03-08T05:30:28.115Z,3.55
2023-03-08T05:32:55.781Z,3.51
2023-03-08T05:35:23.790Z,3.50
2023-03-08T05:37:51.825Z,3.54
2023-03-08T05:40:19.716Z,3.47
2023-03-08T05:42:47.724Z,3.44
2023-03-08T05:45:16.551Z,3.45
2023-03-08T05:47:47.087Z,3.46
2023-03-08T05:50:14.892Z,3.52
2023-03-08T05:52:44.030Z,3.51
2023-03-08T05:55:18.935Z,3.54
2023-03-08T05:57:49.609Z,3.54
2023-03-08T06:00:20.812Z,3.55
2023-03-08T06:02:53.325Z,3.58
2023-03-08T06:05:22.022Z,3.67
2023-03-08T06:07:53.969Z,3.62
2023-03-08T06:10:22.082Z,3.58
2023-03-08T06:12:51.469Z,3.43
2023-03-08T06:15:20.900Z,3.45
2023-03-08T06:17:48.585Z,3.51
2023-03-08T06:20:19.411Z,3.58
2023-03-08T06:22:50.320Z,3.66
2023-03-08T06:25:19.939Z,3.69
2023-03-08T06:27:48.281Z,3.74
2023-03-08T06:30:23.838Z,4.01
2023-03-08T06:32:52.331Z,4.07
2023-03-08T06:35:19.803Z,4.10
2023-03-08T06:37:54.386Z,4.17
2023-03-08T06:40:21.810Z,4.24
2023-03-08T06:42:50.089Z,4.31
2023-03-08T06:45:18.120Z,4.37
2023-03-08T06:47:45.824Z,4.37
2023-03-08T06:50:14.264Z,4.42
2023-03-08T06:52:45.504Z,4.56
2023-03-08T06:55:14.925Z,4.62
2023-03-08T06:57:43.316Z,4.67
2023-03-08T07:00:12.475Z,4.70
2023-03-08T07:02:40.195Z,4.76
2023-03-08T07:05:08.385Z,4.82
2023-03-08T07:07:36.887Z,4.90
2023-03-08T07:10:06.034Z,5.02
2023-03-08T07:12:37.312Z,5.13
2023-03-08T07:15:14.951Z,5.22
2023-03-08T07:17:43.863Z,5.33
2023-03-08T07:20:16.541Z,5.42
2023-03-08T07:22:45.656Z,5.53
2023-03-08T07:25:16.814Z,5.64
2023-03-08T07:27:45.098Z,5.78
2023-03-08T07:30:16.384Z,5.92
2023-03-08T07:32:45.005Z,6.05
2023-03-08T07:35:16.276Z,6.28
2023-03-08T07:37:48.072Z,6.43
2023-03-08T07:40:18.556Z,6.54
2023-03-08T07:42:46.750Z,6.66
2023-03-08T07:45:40.595Z,6.80
2023-03-08T07:48:08.026Z,6.92
2023-03-08T07:50:42.805Z,6.93
2023-03-08T07:53:12.175Z,7.03
2023-03-08T07:55:48.712Z,7.26
2023-03-08T07:58:19.036Z,7.57
2023-03-08T08:00:48.610Z,7.81
2023-03-08T08:03:16.334Z,8.02
2023-03-08T08:05:44.390Z,8.13
2023-03-08T08:08:14.316Z,8.26
2023-03-08T08:10:43.888Z,8.28
2023-03-08T08:13:11.645Z,8.34
2023-03-08T08:15:38.839Z,8.41
2023-03-08T08:18:06.159Z,8.57
2023-03-08T08:20:33.345Z,8.70
2023-03-08T08:23:00.527Z,8.85
2023-03-08T08:25:27.768Z,8.88
2023-03-08T08:27:55.020Z,8.88
2023-03-08T08:30:22.649Z,8.93
2023-03-08T08:32:49.944Z,9.02
2023-03-08T08:35:17.315Z,9.06
2023-03-08T08:37:44.484Z,9.23
2023-03-08T08:40:12.574Z,9.29
2023-03-08T08:42:40.187Z,9.11
2023-03-08T08:45:09.319Z,9.42
2023-03-08T08:47:36.508Z,9.53
2023-03-08T08:50:04.362Z,9.60
2023-03-08T08:52:31.753Z,9.58
2023-03-08T08:54:59.229Z,9.58
2023-03-08T08:57:26.445Z,9.70
2023-03-08T08:59:53.602Z,9.73
2023-03-08T09:02:20.972Z,9.85
2023-03-08T09:04:48.435Z,10.03
2023-03-08T09:07:15.913Z,9.98
2023-03-08T09:09:43.297Z,10.00
2023-03-08T09:12:10.513Z,9.96
2023-03-08T09:14:37.683Z,9.62
2023-03-08T09:17:06.724Z,9.71
2023-03-08T09:19:34.192Z,10.10
2023-03-08T09:22:01.347Z,10.46
2023-03-08T09:24:28.658Z,10.23
2023-03-08T09:26:55.909Z,10.05
2023-03-08T09:29:23.121Z,10.45
2023-03-08T09:31:50.385Z,10.16
2023-03-08T09:34:17.654Z,10.49
2023-03-08T09:36:45.180Z,10.62
2023-03-08T09:39:13.759Z,10.91
2023-03-08T09:42:00.907Z,10.13
2023-03-08T09:45:16.509Z,10.53
2023-03-08T09:48:22.942Z,10.94
2023-03-08T09:50:52.558Z,11.23
2023-03-08T09:53:58.491Z,10.76
2023-03-08T09:56:33.561Z,11.13
2023-03-08T09:59:31.138Z,11.09
2023-03-08T10:02:25.460Z,11.24
2023-03-08T10:05:16.938Z,11.35
2023-03-08T10:08:25.422Z,11.46
2023-03-08T10:11:13.487Z,11.64
2023-03-08T10:13:48.909Z,11.60
2023-03-08T10:16:28.778Z,11.53
2023-03-08T10:19:41.435Z,11.65
2023-03-08T10:22:27.390Z,11.90
2023-03-08T10:25:13.844Z,12.18
2023-03-08T10:27:41.009Z,12.56
2023-03-08T10:30:21.585Z,12.60
2023-03-08T10:32:56.589Z,12.59
2023-03-08T10:36:12.599Z,12.70
2023-03-08T10:38:40.158Z,12.62
2023-03-08T10:41:18.060Z,12.72
2023-03-08T10:43:53.953Z,12.71
2023-03-08T10:46:26.826Z,12.67
2023-03-08T10:48:54.418Z,12.59
2023-03-08T10:51:29.537Z,12.78
2023-03-08T10:54:04.736Z,15.06
2023-03-08T10:56:44.768Z,17.05
2023-03-08T10:59:35.062Z,15.72
2023-03-08T11:02:23.337Z,13.48
2023-03-08T11:05:00.359Z,13.58
2023-03-08T11:07:33.480Z,14.28
2023-03-08T11:10:12.771Z,12.64
2023-03-08T11:12:40.375Z,12.81
2023-03-08T11:15:19.556Z,12.95
2023-03-08T11:18:19.513Z,13.88
2023-03-08T11:20:57.772Z,14.50
2023-03-08T11:23:40.172Z,14.38
2023-03-08T11:27:20.920Z,14.46
2023-03-08T11:30:18.036Z,15.15
2023-03-08T11:33:39.663Z,15.47
2023-03-08T11:36:27.269Z,14.90
2023-03-08T11:39:28.316Z,14.79
2023-03-08T11:42:50.437Z,15.43
2023-03-08T11:46:05.917Z,15.27
2023-03-08T11:48:49.501Z,17.07
2023-03-08T11:52:01.072Z,18.90
2023-03-08T11:55:07.410Z,16.58
2023-03-08T11:57:45.498Z,14.43
2023-03-08T12:00:35.211Z,14.46
2023-03-08T12:03:16.901Z,14.51
2023-03-08T12:05:58.400Z,14.61
2023-03-08T12:08:44.404Z,13.24
2023-03-08T12:11:27.264Z,13.78
2023-03-08T12:14:22.793Z,14.55
2023-03-08T12:17:21.730Z,14.60
2023-03-08T12:19:51.410Z,15.05
2023-03-08T12:22:39.380Z,14.91
2023-03-08T12:25:35.440Z,14.74
2023-03-08T12:28:30.454Z,15.02
2023-03-08T12:31:28.340Z,14.72
2023-03-08T12:33:59.468Z,14.79
2023-03-08T12:36:45.118Z,14.70
2023-03-08T12:39:35.922Z,14.90
2023-03-08T12:42:16.509Z,14.41
2023-03-08T12:44:44.006Z,14.54
2023-03-08T12:47:14.102Z,14.60
2023-03-08T12:49:50.938Z,14.46
2023-03-08T12:52:18.426Z,14.64
2023-03-08T12:55:00.283Z,14.56
2023-03-08T12:57:47.589Z,14.61
2023-03-08T13:00:20.842Z,14.48
2023-03-08T13:03:02.585Z,14.57
2023-03-08T13:05:39.626Z,14.70
2023-03-08T13:08:12.773Z,14.78
2023-03-08T13:10:52.468Z,14.76
2023-03-08T13:13:39.697Z,14.61
2023-03-08T13:16:29.397Z,14.35
2023-03-08T13:19:27.584Z,14.26
2023-03-08T13:22:12.960Z,14.40
2023-03-08T13:25:56.774Z,14.20
2023-03-08T13:28:44.444Z,14.18
2023-03-08T13:31:25.075Z,14.19
2023-03-08T13:33:59.377Z,14.32
2023-03-08T13:36:33.264Z,14.32
2023-03-08T13:39:30.034Z,14.50
2023-03-08T13:42:12.852Z,14.37
2023-03-08T13:44:40.000Z,14.32
2023-03-08T13:47:26.961Z,14.03
2023-03-08T13:49:55.633Z,14.07
2023-03-08T13:52:29.865Z,13.70
2023-03-08T13:55:06.560Z,13.87
2023-03-08T13:57:38.055Z,13.70
2023-03-08T14:00:27.962Z,13.67
2023-03-08T14:02:57.609Z,13.63
2023-03-08T14:05:43.875Z,13.68
2023-03-08T14:08:25.704Z,13.82
2023-03-08T14:11:07.059Z,13.74
2023-03-08T14:13:38.539Z,13.64
2023-03-08T14:16:09.006Z,13.69
2023-03-08T14:18:38.972Z,13.67
2023-03-08T14:21:26.409Z,13.74
2023-03-08T14:24:02.122Z,13.48
2023-03-08T14:26:39.711Z,13.43
2023-03-08T14:29:21.690Z,13.38
2023-03-08T14:32:06.280Z,13.29
2023-03-08T14:34:51.628Z,13.21
2023-03-08T14:37:29.721Z,13.11
2023-03-08T14:40:14.538Z,13.09
2023-03-08T14:42:48.073Z,13.05
2023-03-08T14:45:26.440Z,12.97
2023-03-08T14:48:01.244Z,13.01
2023-03-08T14:50:34.796Z,12.96
2023-03-08T14:53:03.982Z,13.03
2023-03-08T14:55:38.518Z,13.11
2023-03-08T14:58:13.131Z,13.14
2023-03-08T15:00:55.898Z,13.14
2023-03-08T15:03:23.812Z,13.09
2023-03-08T15:05:52.985Z,13.11
2023-03-08T15:08:20.966Z,13.09
2023-03-08T15:10:49.688Z,13.17
2023-03-08T15:13:21.900Z,13.33
2023-03-08T15:15:50.272Z,13.42
2023-03-08T15:18:17.477Z,13.59
2023-03-08T15:20:49.434Z,13.59
2023-03-08T15:23:31.672Z,13.62
2023-03-08T15:26:03.849Z,13.45
2023-03-08T15:28:31.050Z,13.39
2023-03-08T15:30:58.368Z,13.32
2023-03-08T15:33:25.534Z,13.32
2023-03-08T15:35:52.882Z,13.19
2023-03-08T15:38:21.452Z,13.24
2023-03-08T15:40:48.781Z,13.06
2023-03-08T15:43:15.925Z,13.05
2023-03-08T15:45:43.123Z,12.90
2023-03-08T15:48:17.484Z,12.87
2023-03-08T15:50:45.437Z,12.82
2023-03-08T15:53:20.629Z,12.75
2023-03-08T15:55:53.296Z,12.82
2023-03-08T15:58:20.449Z,12.73
2023-03-08T16:00:48.998Z,12.75
2023-03-08T16:03:25.711Z,12.70
2023-03-08T16:05:53.114Z,12.65
2023-03-08T16:08:25.711Z,12.61
2023-03-08T16:10:52.995Z,12.64
2023-03-08T16:13:22.037Z,12.56
2023-03-08T16:15:49.470Z,12.50
2023-03-08T16:18:16.976Z,12.46
2023-03-08T16:20:46.111Z,12.46
2023-03-08T16:23:13.400Z,12.46
2023-03-08T16:25:43.195Z,12.41
2023-03-08T16:28:10.659Z,12.41
2023-03-08T16:30:40.264Z,12.38
2023-03-08T16:33:07.407Z,12.37
2023-03-08T16:35:34.616Z,12.35
2023-03-08T16:38:01.779Z,12.39
2023-03-08T16:40:31.226Z,12.36
2023-03-08T16:42:58.571Z,12.34
2023-03-08T16:45:25.716Z,12.28
2023-03-08T16:47:54.008Z,12.22
2023-03-08T16:50:21.108Z,12.19
2023-03-08T16:52:48.330Z,12.17
2023-03-08T16:55:15.564Z,12.20
2023-03-08T16:57:42.689Z,12.24
2023-03-08T17:00:12.698Z,12.25
2023-03-08T17:02:40.254Z,12.19
2023-03-08T17:05:10.612Z,12.10
2023-03-08T17:07:38.654Z,12.02
2023-03-08T17:10:07.329Z,11.96
2023-03-08T17:12:34.661Z,11.99
2023-03-08T17:15:04.717Z,11.99
2023-03-08T17:17:32.027Z,11.93
2023-03-08T17:20:00.563Z,11.92
2023-03-08T17:22:27.900Z,11.92
2023-03-08T17:24:55.446Z,11.95
2023-03-08T17:27:24.092Z,11.97
2023-03-08T17:29:51.484Z,11.94
2023-03-08T17:32:19.056Z,11.87
2023-03-08T17:34:46.236Z,11.82
2023-03-08T17:37:13.403Z,11.81
2023-03-08T17:39:41.491Z,11.79
2023-03-08T17:42:10.126Z,11.89
2023-03-08T17:44:37.296Z,11.87
2023-03-08T17:47:04.774Z,11.82
2023-03-08T17:49:34.110Z,11.76
2023-03-08T17:52:01.206Z,11.73
2023-03-08T17:54:28.410Z,11.77
2023-03-08T17:56:55.610Z,11.78
2023-03-08T17:59:22.903Z,11.73
2023-03-08T18:01:50.069Z,11.69
2023-03-08T18:04:18.968Z,11.79
2023-03-08T18:06:46.273Z,11.76
2023-03-08T18:09:16.534Z,11.72
2023-03-08T18:11:44.130Z,11.70
2023-03-08T18:14:14.533Z,11.72
2023-03-08T18:16:44.727Z,11.75
2023-03-08T18:19:12.275Z,11.72
2023-03-08T18:21:41.328Z,11.64
2023-03-08T18:24:14.208Z,11.59
2023-03-08T18:26:41.444Z,11.62
2023-03-08T18:29:08.648Z,11.59
2023-03-08T18:31:37.198Z,11.59
2023-03-08T18:34:06.073Z,11.59
2023-03-08T18:36:34.429Z,11.59
2023-03-08T18:39:06.356Z,11.54
2023-03-08T18:41:34.262Z,11.48
2023-03-08T18:44:01.683Z,11.44
2023-03-08T18:46:32.443Z,11.45
2023-03-08T18:49:08.235Z,11.45
2023-03-08T18:51:39.803Z,11.43
2023-03-08T18:54:09.278Z,11.41
2023-03-08T18:56:36.644Z,11.43
2023-03-08T18:59:07.008Z,11.41
2023-03-08T19:01:34.841Z,11.41
2023-03-08T19:04:06.069Z,11.40
2023-03-08T19:06:35.693Z,11.42
2023-03-08T19:09:16.226Z,11.42
2023-03-08T19:11:44.539Z,11.43
2023-03-08T19:14:12.750Z,11.38
2023-03-08T19:16:40.137Z,11.29
2023-03-08T19:19:14.611Z,11.28
2023-03-08T19:21:50.830Z,11.23
2023-03-08T19:24:21.097Z,11.26
2023-03-08T19:26:52.573Z,11.27
2023-03-08T19:29:27.901Z,11.21
2023-03-08T19:32:05.631Z,11.16
2023-03-08T19:34:40.309Z,11.12
2023-03-08T19:37:09.461Z,11.11
2023-03-08T19:39:38.749Z,11.09
2023-03-08T19:42:11.472Z,11.06
2023-03-08T19:44:38.955Z,11.00
2023-03-08T19:47:06.727Z,10.97
2023-03-08T19:49:36.856Z,10.96
2023-03-08T19:52:07.264Z,10.96
2023-03-08T19:54:35.251Z,10.98
2023-03-08T19:57:02.934Z,10.98
2023-03-08T19:59:30.855Z,11.03
2023-03-08T20:01:58.189Z,11.05
2023-03-08T20:04:25.631Z,11.02
2023-03-08T20:06:53.010Z,10.97
2023-03-08T20:09:21.697Z,11.02
2023-03-08T20:11:53.296Z,11.00
2023-03-08T20:14:24.178Z,10.95
2023-03-08T20:16:51.527Z,10.94
2023-03-08T20:19:19.048Z,10.96
2023-03-08T20:21:46.400Z,10.91
2023-03-08T20:24:14.196Z,10.86
2023-03-08T20:26:41.967Z,10.80
2023-03-08T20:29:09.632Z,10.80
2023-03-08T20:31:36.828Z,10.82
2023-03-08T20:34:04.360Z,10.86
2023-03-08T20:36:32.800Z,10.89
2023-03-08T20:39:00.835Z,10.90
2023-03-08T20:41:32.149Z,10.86
2023-03-08T20:43:59.380Z,10.89
2023-03-08T20:46:33.032Z,10.87
2023-03-08T20:49:01.667Z,10.84
2023-03-08T20:51:29.580Z,10.88
2023-03-08T20:53:58.617Z,10.87
2023-03-08T20:56:32.455Z,10.84
2023-03-08T20:59:00.494Z,10.80
2023-03-08T21:01:32.694Z,10.80
2023-03-08T21:04:03.900Z,10.83
2023-03-08T21:06:32.190Z,10.84
2023-03-08T21:09:00.875Z,10.82
2023-03-08T21:11:28.956Z,10.82
2023-03-08T21:13:56.525Z,10.80
2023-03-08T21:16:27.305Z,10.80
2023-03-08T21:19:00.672Z,10.78
2023-03-08T21:21:35.412Z,10.80
2023-03-08T21:24:19.842Z,10.81
2023-03-08T21:26:47.093Z,10.78
2023-03-08T21:29:18.851Z,10.78
2023-03-08T21:31:53.371Z,10.77
2023-03-08T21:34:21.665Z,10.82
2023-03-08T21:36:48.898Z,10.88
2023-03-08T21:39:16.687Z,10.90
2023-03-08T21:41:47.406Z,10.88
2023-03-08T21:44:20.456Z,10.90
2023-03-08T21:46:51.503Z,10.87
2023-03-08T21:49:29.472Z,10.81
2023-03-08T21:51:58.923Z,10.78
2023-03-08T21:54:29.498Z,10.79
2023-03-08T21:56:58.147Z,10.89
2023-03-08T21:59:27.009Z,10.90
2023-03-08T22:01:58.285Z,10.94
2023-03-08T22:04:26.728Z,10.91
2023-03-08T22:06:55.640Z,10.86
2023-03-08T22:09:26.642Z,10.79
2023-03-08T22:11:54.095Z,10.81
2023-03-08T22:14:21.367Z,10.81
2023-03-08T22:16:49.368Z,10.77
2023-03-08T22:19:17.941Z,10.81
2023-03-08T22:21:45.168Z,10.87
2023-03-08T22:24:12.327Z,10.85
2023-03-08T22:26:39.537Z,10.83
2023-03-08T22:29:06.719Z,10.78
2023-03-08T22:31:34.226Z,10.78
2023-03-08T22:34:01.509Z,10.73
2023-03-08T22:36:28.836Z,10.70
2023-03-08T22:38:56.236Z,10.65
2023-03-08T22:41:27.296Z,10.59
2023-03-08T22:43:55.284Z,10.56
2023-03-08T22:46:27.374Z,10.55
2023-03-08T22:48:58.107Z,10.58
2023-03-08T22:51:28.239Z,10.59
2023-03-08T22:53:56.161Z,10.62
2023-03-08T22:56:31.714Z,10.57
2023-03-08T22:59:01.906Z,10.54
2023-03-08T23:01:30.909Z,10.56
2023-03-08T23:04:01.093Z,10.55
2023-03-08T23:06:30.725Z,10.51
2023-03-08T23:09:06.212Z,10.50
2023-03-08T23:11:35.551Z,10.45
2023-03-08T23:14:03.364Z,10.42
2023-03-08T23:16:30.737Z,10.38
2023-03-08T23:18:57.963Z,10.32
2023-03-08T23:21:29.804Z,10.31
2023-03-08T23:23:58.195Z,10.32
2023-03-08T23:26:28.317Z,10.35
2023-03-08T23:28:58.782Z,10.30
2023-03-08T23:31:30.066Z,10.17
2023-03-08T23:33:58.044Z,10.09
2023-03-08T23:36:26.939Z,9.91
2023-03-08T23:38:55.258Z,9.92
2023-03-08T23:41:22.526Z,10.06
2023-03-08T23:43:53.789Z,10.17
2023-03-08T23:46:24.395Z,10.24
2023-03-08T23:48:55.142Z,10.24
2023-03-08T23:51:24.505Z,10.21
2023-03-08T23:53:56.675Z,10.19
2023-03-08T23:56:40.208Z,10.18
2023-03-08T23:59:21.778Z,10.16
